Latest Weather Observations for Gudgenby

IDN60901

Issued at 4:21 am EDT Tuesday 21 January 2020 (issued every 10 minutes, with the page automatically refreshed every 10 minutes)

About weather observations | Map of Canberra area stations | Latest observations for Canberra area | Other Formats
Station Details ID: 250072 Name: GUDGENBY (PCS) Lat: -35.73 Lon: 148.98 Height: 1035.0 m

Portable automatic weather stations (PAWS) are operated by other organisations, such as Fire and Emergency Services, and are included here by agreement. Portable stations may be deployed to a location for a short period and their location may be subject to change without notice. Wind observations from these stations are provided from heights of either three (3) or ten (10) metres above ground level (AGL).

Data from the previous 72 hours. | See also: Recent months for locations in Aust Capital Territory
Date/Time
EDT
Temp
°C
App
Temp
°C
Dew
Point
°C
Rel
Hum
%
Delta-T
°C
Wind Press
QNH
hPa
Press
MSL
hPa
Rain since
9am
mm
Dir  Spd
km/h
Gust
km/h
Spd
kts
Gust
kts
21/04:10am 13.3 11.6 8.5 72 2.5 WSW 7 13 4 7 - - 0.0
21/04:00am 13.3 11.7 8.1 71 2.7 ENE 6 11 3 6 - - 0.0
21/03:50am 13.3 11.5 8.1 71 2.7 W 7 13 4 7 - - 0.0
21/03:40am 13.4 11.7 8.4 72 2.6 W 7 15 4 8 - - 0.0
21/03:30am 13.4 11.7 8.2 71 2.7 W 7 15 4 8 - - 0.0
21/03:20am 13.4 8.8 8.1 70 2.8 WNW 22 32 12 17 - - 0.0
21/03:10am 13.4 8.4 8.0 70 2.8 WNW 24 30 13 16 - - 0.0
21/03:00am 13.4 8.0 7.9 69 2.9 WNW 26 30 14 16 - - 0.0
21/02:50am 13.4 7.9 7.5 67 3.1 WNW 26 30 14 16 - - 0.0
21/02:40am 13.4 7.9 7.4 67 3.1 WNW 26 35 14 19 - - 0.0
21/02:30am 13.4 9.1 7.1 65 3.2 WNW 19 26 10 14 - - 0.0
21/02:20am 13.6 10.5 7.1 65 3.3 W 13 17 7 9 - - 0.0
21/02:10am 13.9 9.8 6.3 60 3.9 WNW 17 20 9 11 - - 0.0
21/02:00am 13.9 9.8 6.2 59 3.9 WNW 17 22 9 12 - - 0.0
21/01:50am 14.0 11.4 6.3 60 3.9 WNW 9 13 5 7 - - 0.0
21/01:40am 14.0 11.2 6.9 62 3.7 NW 11 15 6 8 - - 0.0
21/01:30am 13.9 9.9 6.6 61 3.7 NNW 17 22 9 12 - - 0.0
21/01:20am 14.0 10.4 6.8 62 3.7 NNW 15 20 8 11 - - 0.0
21/01:10am 14.0 10.0 6.5 60 3.8 N 17 22 9 12 - - 0.0
21/01:00am 13.9 11.1 7.0 63 3.6 N 11 13 6 7 - - 0.0
21/12:50am 14.0 11.3 7.4 64 3.4 NNW 11 13 6 7 - - 0.0
21/12:40am 13.9 10.6 6.5 61 3.8 N 13 15 7 8 - - 0.0
21/12:30am 14.0 11.3 7.2 63 3.5 NNE 11 15 6 8 - - 0.0
21/12:20am 14.1 12.0 6.6 60 3.8 NNE 7 9 4 5 - - 0.0
21/12:10am 14.3 11.7 7.8 65 3.4 N 11 17 6 9 - - 0.0
21/12:00am 14.3 11.5 7.0 61 3.8 NNE 11 15 6 8 - - 0.0
 
Date/Time
EDT
Temp
°C
App
Temp
°C
Dew
Point
°C
Rel
Hum
%
Delta-T
°C
Wind Press
QNH
hPa
Press
MSL
hPa
Rain since
9am
mm
Dir  Spd
km/h
Gust
km/h
Spd
kts
Gust
kts
20/11:50pm 14.2 12.0 7.9 66 3.3 ENE 9 15 5 8 - - 0.0
20/11:40pm 14.3 11.6 7.3 63 3.6 ENE 11 15 6 8 - - 0.0
20/11:30pm 14.4 12.2 7.9 65 3.4 E 9 13 5 7 - - 0.0
20/11:20pm 14.5 12.4 8.2 66 3.3 SE 9 11 5 6 - - 0.0
20/11:10pm 14.7 12.4 7.6 62 3.7 E 9 13 5 7 - - 0.0
20/11:00pm 14.4 12.0 7.1 61 3.8 ENE 9 13 5 7 - - 0.0
20/10:50pm 14.3 12.5 8.1 66 3.3 E 7 9 4 5 - - 0.0
20/10:40pm 14.0 12.3 7.6 65 3.3 ESE 6 9 3 5 - - 0.0
20/10:30pm 14.3 13.3 8.9 70 2.9 E 4 7 2 4 - - 0.0
20/10:20pm 14.4 12.8 7.8 64 3.5 ESE 6 7 3 4 - - 0.0
20/10:10pm 14.2 12.7 9.0 71 2.8 E 7 9 4 5 - - 0.0
20/10:00pm 14.4 13.4 8.8 69 3.0 NE 4 6 2 3 - - 0.0
20/09:50pm 14.6 13.2 8.8 68 3.1 NW 6 9 3 5 - - 0.0
20/09:40pm 14.7 12.8 9.0 68 3.1 WNW 9 19 5 10 - - 0.0
20/09:30pm 14.7 12.8 8.9 68 3.1 NNW 9 13 5 7 - - 0.0
20/09:20pm 14.8 12.4 8.5 66 3.4 NW 11 15 6 8 - - 0.0
20/09:10pm 15.0 12.5 8.4 64 3.5 NW 11 15 6 8 - - 0.0
20/09:00pm 15.0 12.9 8.2 64 3.6 NNW 9 17 5 9 - - 0.0
20/08:50pm 15.1 12.3 8.4 64 3.6 NW 13 15 7 8 - - 0.0
20/08:40pm 15.1 12.3 8.4 64 3.6 NW 13 19 7 10 - - 0.0
20/08:30pm 15.3 12.8 8.4 63 3.7 NW 11 15 6 8 - - 0.0
20/08:20pm 15.5 11.9 8.4 62 3.8 NW 17 20 9 11 - - 0.0
20/08:10pm 15.9 13.0 8.2 60 4.1 NW 13 20 7 11 - - 0.0
20/08:00pm 16.0 11.8 7.4 56 4.5 NW 19 26 10 14 - - 0.0
20/07:50pm 16.3 13.6 7.2 55 4.8 NW 11 19 6 10 - - 0.0
20/07:40pm 16.6 13.0 6.9 52 5.1 WNW 15 22 8 12 - - 0.0
20/07:30pm 16.9 12.7 7.5 54 5.0 NW 19 26 10 14 - - 0.0
20/07:20pm 17.2 12.4 7.2 51 5.3 NW 22 26 12 14 - - 0.0
20/07:10pm 17.5 12.3 7.3 51 5.4 NW 24 37 13 20 - - 0.0
20/07:00pm 18.2 11.4 7.1 48 5.9 NW 32 37 17 20 - - 0.0
20/06:50pm 18.7 12.9 6.4 44 6.5 NNW 26 32 14 17 - - 0.0
20/06:40pm 19.2 12.1 6.5 43 6.7 NW 33 39 18 21 - - 0.0
20/06:30pm 19.8 12.5 7.0 43 6.8 NW 35 43 19 23 - - 0.0
20/06:20pm 20.4 15.0 6.4 40 7.4 WNW 24 30 13 16 - - 0.0
20/06:10pm 20.9 16.2 6.2 38 7.8 W 20 30 11 16 - - 0.0
20/06:00pm 21.1 16.1 6.6 39 7.7 WNW 22 26 12 14 - - 0.0
20/05:50pm 21.1 15.6 6.0 37 8.0 NW 24 32 13 17 - - 0.0
20/05:40pm 21.0 15.8 7.2 41 7.4 NW 24 28 13 15 - - 0.0
20/05:30pm 20.4 13.9 6.7 41 7.3 NNW 30 37 16 20 - - 0.0
20/05:20pm 20.6 13.7 6.6 40 7.5 NNW 32 39 17 21 - - 0.0
20/05:10pm 20.6 16.3 9.2 48 6.4 N 22 26 12 14 - - 0.0
20/05:00pm 20.6 16.2 8.9 47 6.5 N 22 28 12 15 - - 0.0
20/04:50pm 20.6 15.9 9.2 48 6.4 N 24 28 13 15 - - 0.0
20/04:40pm 20.3 14.3 8.6 47 6.5 NNW 30 39 16 21 - - 0.0
20/04:30pm 20.5 16.2 9.5 49 6.2 N 22 28 12 15 - - 0.0
20/04:20pm 21.0 18.6 9.9 49 6.3 NNW 13 22 7 12 - - 0.0
20/04:10pm 20.6 17.6 9.1 47 6.4 NNW 15 17 8 9 - - 0.0
20/04:00pm 20.0 18.9 10.6 54 5.4 N 7 13 4 7 - - 0.0
20/03:50pm 19.6 18.5 8.5 48 6.1 N 4 7 2 4 - - 0.0
20/03:40pm 19.3 17.9 9.0 51 5.7 S 6 11 3 6 - - 0.0
20/03:30pm 18.8 17.0 9.4 54 5.2 E 9 9 5 5 - - 0.0
20/03:20pm 18.5 16.7 9.3 55 5.1 SSE 9 13 5 7 - - 0.0
20/03:10pm 17.8 15.9 9.0 56 4.8 SE 9 13 5 7 - - 0.0
20/03:00pm 16.6 13.3 8.2 57 4.5 SE 15 20 8 11 - - 0.0
20/02:50pm 15.8 12.2 9.8 67 3.3 SE 19 20 10 11 - - 0.0
20/02:40pm 15.3 12.9 10.0 70 2.9 ESE 13 17 7 9 - - 0.0
20/02:30pm 15.2 11.8 9.1 67 3.3 S 17 26 9 14 - - 0.0
20/02:20pm 14.5 9.3 8.9 69 3.0 SW 26 32 14 17 - - 0.0
20/02:10pm 13.8 9.0 9.0 73 2.6 WSW 24 28 13 15 - - 0.0
20/02:00pm 13.6 6.5 9.6 77 2.2 W 37 48 20 26 - - 0.0
20/01:50pm 14.0 6.2 9.8 76 2.3 WNW 41 56 22 30 - - 0.0
20/01:40pm 15.4 9.7 9.9 70 3.0 NW 30 46 16 25 - - 0.0
20/01:30pm 13.5 12.1 9.5 77 2.2 ENE 7 11 4 6 - - 0.0
20/01:20pm 13.3 11.2 9.8 79 1.9 SSE 11 19 6 10 - - 0.0
20/01:10pm 13.5 7.1 8.5 72 2.6 W 32 43 17 23 - - 0.0
20/01:00pm 12.9 5.1 8.4 74 2.4 W 39 52 21 28 - - 0.0
20/12:50pm 12.9 3.9 8.9 76 2.1 W 46 54 25 29 - - 0.0
20/12:40pm 15.8 10.2 8.8 63 3.8 WSW 28 41 15 22 - - 0.0
20/12:30pm 16.8 10.9 7.3 53 5.0 SW 28 33 15 18 - - 0.0
20/12:20pm 18.0 14.4 8.5 53 5.2 SW 17 32 9 17 - - 0.0
20/12:10pm 21.5 19.3 13.4 60 4.9 NNE 17 28 9 15 - - 0.0
20/12:00pm 22.6 19.5 13.5 56 5.5 NNE 22 32 12 17 - - 0.0
20/11:50am 23.4 20.5 12.8 51 6.4 NNE 20 32 11 17 - - 0.0
20/11:40am 22.3 19.1 13.0 55 5.6 N 22 28 12 15 - - 0.0
20/11:30am 22.4 19.8 13.1 55 5.6 NNE 19 26 10 14 - - 0.0
20/11:20am 22.2 19.0 13.0 56 5.5 N 22 26 12 14 - - 0.0
20/11:10am 21.9 19.2 13.0 57 5.3 N 19 24 10 13 - - 0.0
20/11:00am 21.3 18.7 13.7 62 4.6 NNE 20 26 11 14 - - 0.0
20/10:50am 21.1 18.8 14.1 64 4.3 N 19 22 10 12 - - 0.0
20/10:40am 20.5 17.7 13.2 63 4.4 NNE 20 28 11 15 - - 0.0
20/10:30am 20.8 19.3 13.2 61 4.6 NNE 13 19 7 10 - - 0.0
20/10:20am 20.2 18.7 13.2 64 4.2 NNE 13 22 7 12 - - 0.0
20/10:10am 19.5 18.7 13.0 66 3.9 N 9 13 5 7 - - 0.0
20/10:00am 19.3 19.2 14.0 71 3.2 NE 7 11 4 6 - - 0.2
20/09:50am 19.5 18.8 14.3 72 3.2 NE 11 17 6 9 - - 0.2
20/09:40am 19.3 19.2 13.9 71 3.3 NE 7 13 4 7 - - 0.2
20/09:30am 18.5 18.6 13.9 74 2.8 N 6 11 3 6 - - 0.2
20/09:20am 18.3 18.8 14.1 76 2.5 NNW 4 6 2 3 - - 0.2
20/09:10am 18.3 19.0 14.4 78 2.4 NE 4 7 2 4 - - 0.2
20/09:00am 17.3 17.8 14.0 81 2.0 N 4 6 2 3 - - 0.2
20/08:50am 17.0 17.8 14.9 87 1.3 N 4 4 2 2 - - 0.2
20/08:40am 17.3 18.5 14.8 85 1.5 NNW 2 4 1 2 - - 0.2
20/08:30am 16.6 17.3 14.6 88 1.2 NW 4 6 2 3 - - 0.2
20/08:20am 16.0 16.8 14.8 93 0.7 N 4 4 2 2 - - 0.2
20/08:10am 15.9 17.0 14.5 91 0.8 NE 2 4 1 2 - - 0.2
20/08:00am 15.8 17.2 15.4 97 0.2 WSW 2 4 1 2 - - 0.2
20/07:50am 14.9 16.1 14.9 100 0.0 NNW 2 4 1 2 - - 0.2
20/07:40am 14.5 15.6 14.5 100 0.0 SW 2 2 1 1 - - 0.2
20/07:30am 14.2 15.2 14.2 100 0.0 WNW 2 4 1 2 - - 0.2
20/07:20am 14.1 15.0 14.1 100 0.0 WNW 2 2 1 1 - - 0.2
20/07:10am 13.5 13.8 13.5 100 0.0 ESE 4 4 2 2 - - 0.2
20/07:00am 13.3 13.6 13.3 100 0.0 SE 4 4 2 2 - - 0.2
20/06:50am 13.5 14.2 13.5 100 0.0 ESE 2 4 1 2 - - 0.2
20/06:40am 13.3 14.0 13.3 100 0.0 ESE 2 4 1 2 - - 0.2
20/06:30am 13.1 13.7 13.1 100 0.0 SSW 2 2 1 1 - - 0.2
20/06:20am 13.0 13.9 13.0 100 0.0 CALM 0 2 0 1 - - 0.2
20/06:10am 13.1 13.7 13.1 100 0.0 WSW 2 4 1 2 - - 0.2
20/06:00am 13.1 13.3 13.1 100 0.0 S 4 6 2 3 - - 0.2
20/05:50am 13.4 14.1 13.4 100 0.0 SE 2 4 1 2 - - 0.2
20/05:40am 13.5 14.2 13.5 100 0.0 NNW 2 4 1 2 - - 0.2
20/05:30am 13.3 14.0 13.3 100 0.0 W 2 2 1 1 - - 0.2
20/05:20am 13.3 14.0 13.3 100 0.0 NNW 2 6 1 3 - - 0.2
20/05:10am 13.5 14.2 13.3 99 0.1 WSW 2 6 1 3 - - 0.2
20/05:00am 13.6 13.5 13.4 99 0.1 S 6 6 3 3 - - 0.2
20/04:50am 13.6 13.4 13.6 100 0.0 SSW 7 9 4 5 - - 0.2
20/04:40am 13.4 13.3 13.4 100 0.0 S 6 6 3 3 - - 0.2
20/04:30am 13.5 13.5 13.5 100 0.0 S 6 6 3 3 - - 0.2
20/04:20am 13.9 14.0 13.9 100 0.0 SSW 6 6 3 3 - - 0.2
20/04:10am 14.1 14.6 14.1 100 0.0 W 4 4 2 2 - - 0.2
20/04:00am 14.1 14.6 14.1 100 0.0 WNW 4 4 2 2 - - 0.2
20/03:50am 14.1 14.6 14.1 100 0.0 N 4 4 2 2 - - 0.2
20/03:40am 13.9 14.3 13.8 99 0.1 NNE 4 4 2 2 - - 0.2
20/03:30am 13.8 14.6 13.6 99 0.1 NNW 2 4 1 2 - - 0.2
20/03:20am 14.0 14.4 13.6 97 0.2 W 4 4 2 2 - - 0.2
20/03:10am 14.1 14.4 13.5 96 0.4 SSW 4 7 2 4 - - 0.2
20/03:00am 14.2 14.0 13.5 96 0.4 SE 7 9 4 5 - - 0.2
20/02:50am 14.3 14.2 13.4 94 0.5 SSE 6 7 3 4 - - 0.2
20/02:40am 14.6 14.4 13.5 93 0.6 S 7 9 4 5 - - 0.2
20/02:30am 14.7 14.2 13.9 95 0.5 S 9 11 5 6 - - 0.2
20/02:20am 15.0 13.3 13.5 91 0.9 S 15 17 8 9 - - 0.2
20/02:10am 14.9 14.4 13.8 93 0.6 SSW 9 13 5 7 - - 0.2
20/02:00am 14.9 14.4 13.8 93 0.6 SW 9 11 5 6 - - 0.2
20/01:50am 14.7 13.9 13.9 95 0.5 SSW 11 15 6 8 - - 0.2
20/01:40am 14.8 14.8 14.3 97 0.3 SSE 7 9 4 5 - - 0.2
20/01:30am 14.7 14.7 14.2 97 0.3 S 7 9 4 5 - - 0.2
20/01:20am 14.6 14.6 14.1 97 0.3 S 7 9 4 5 - - 0.2
20/01:10am 14.6 14.1 13.8 95 0.5 S 9 9 5 5 - - 0.2
20/01:00am 14.9 14.7 13.7 92 0.7 SW 7 7 4 4 - - 0.2
20/12:50am 14.9 14.7 13.5 91 0.8 SSW 7 9 4 5 - - 0.2
20/12:40am 15.2 15.8 14.2 94 0.6 W 4 6 2 3 - - 0.2
20/12:30am 15.1 15.2 13.8 92 0.8 SW 6 9 3 5 - - 0.2
20/12:20am 15.3 14.8 13.8 91 0.9 WSW 9 9 5 5 - - 0.2
20/12:10am 16.1 16.3 14.3 89 1.1 SSW 6 9 3 5 - - 0.2
20/12:00am 16.5 17.2 14.4 87 1.3 W 4 6 2 3 - - 0.2
 
Date/Time
EDT
Temp
°C
App
Temp
°C
Dew
Point
°C
Rel
Hum
%
Delta-T
°C
Wind Press
QNH
hPa
Press
MSL
hPa
Rain since
9am
mm
Dir  Spd
km/h
Gust
km/h
Spd
kts
Gust
kts
19/11:50pm 16.6 17.3 14.5 87 1.3 W 4 7 2 4 - - 0.2
19/11:40pm 16.8 16.8 14.1 84 1.6 NNE 7 11 4 6 - - 0.2
19/11:30pm 17.0 16.3 14.2 83 1.7 N 11 17 6 9 - - 0.2
19/11:20pm 17.1 15.2 14.3 83 1.7 N 17 20 9 11 - - 0.2
19/11:10pm 17.2 17.6 15.2 88 1.2 N 7 9 4 5 - - 0.2
19/11:00pm 17.5 17.3 14.8 84 1.6 N 9 13 5 7 - - 0.2
19/10:50pm 17.5 16.5 14.6 83 1.8 NNE 13 17 7 9 - - 0.2
19/10:40pm 17.6 17.0 14.5 82 1.9 N 11 20 6 11 - - 0.2
19/10:30pm 17.4 18.2 14.8 85 1.6 NNW 4 7 2 4 - - 0.2
19/10:20pm 17.2 17.7 15.0 87 1.3 N 6 9 3 5 - - 0.2
19/10:10pm 17.2 17.6 15.3 88 1.2 N 7 9 4 5 - - 0.2
19/10:00pm 17.0 17.6 15.2 89 1.1 NNW 6 7 3 4 - - 0.2
19/09:50pm 17.1 17.5 15.3 89 1.1 NNW 7 9 4 5 - - 0.2
19/09:40pm 17.7 18.4 15.5 87 1.4 NNW 6 9 3 5 - - 0.0
19/09:30pm 17.6 18.2 14.2 80 2.0 WSW 4 7 2 4 - - 0.0
19/09:20pm 17.2 18.2 14.4 83 1.7 WNW 2 4 1 2 - - 0.0
19/09:10pm 17.1 17.9 14.8 86 1.4 NNW 4 6 2 3 - - 0.0
19/09:00pm 16.9 17.2 14.4 85 1.5 N 6 7 3 4 - - 0.0
19/08:50pm 16.9 17.4 14.9 88 1.2 N 6 7 3 4 - - 0.0
19/08:40pm 17.4 17.1 14.5 83 1.8 NNW 9 11 5 6 - - 0.0
19/08:30pm 17.5 16.5 13.5 77 2.4 WNW 11 15 6 8 - - 0.0
19/08:20pm 18.2 16.8 14.5 79 2.2 NNW 15 17 8 9 - - 0.0
19/08:10pm 19.4 18.3 12.0 62 4.3 N 9 11 5 6 - - 0.0
19/08:00pm 19.7 19.2 12.2 62 4.4 ENE 6 7 3 4 - - 0.0
19/07:50pm 19.7 18.6 12.0 61 4.5 ESE 9 13 5 7 - - 0.0
19/07:40pm 19.8 18.7 10.7 55 5.2 E 7 11 4 6 - - 0.0
19/07:30pm 19.6 19.2 12.4 63 4.2 ENE 6 7 3 4 - - 0.0
19/07:20pm 19.9 19.1 12.8 63 4.2 NE 9 11 5 6 - - 0.0
19/07:10pm 20.3 18.9 13.3 64 4.2 NE 13 15 7 8 - - 0.0
19/07:00pm 21.2 20.8 12.9 59 5.0 ENE 7 11 4 6 - - 0.0
19/06:50pm 20.9 19.8 11.8 56 5.3 NNE 9 13 5 7 - - 0.0
19/06:40pm 20.8 20.0 11.6 55 5.4 N 7 13 4 7 - - 0.0
19/06:30pm 20.8 19.5 11.2 54 5.6 SSE 9 11 5 6 - - 0.0
19/06:20pm 21.0 20.2 11.0 52 5.8 SW 6 7 3 4 - - 0.0
19/06:10pm 21.1 20.2 11.2 53 5.7 ESE 7 13 4 7 - - 0.0
19/06:00pm 21.3 18.9 11.5 53 5.7 ESE 15 20 8 11 - - 0.0
19/05:50pm 21.7 18.0 11.5 52 6.0 ESE 22 26 12 14 - - 0.0
19/05:40pm 22.3 17.5 11.5 50 6.3 E 28 33 15 18 - - 0.0
19/05:30pm 23.5 18.4 10.7 44 7.4 E 28 32 15 17 - - 0.0
19/05:20pm 24.8 19.9 6.7 31 9.9 E 22 28 12 15 - - 0.0
19/05:10pm 24.4 19.0 6.4 31 9.8 E 24 30 13 16 - - 0.0
19/05:00pm 24.1 20.2 7.2 33 9.3 E 17 28 9 15 - - 0.0
19/04:50pm 24.0 20.4 6.7 33 9.4 ESE 15 19 8 10 - - 0.0
19/04:40pm 22.6 18.2 7.3 37 8.3 ESE 20 30 11 16 - - 0.0
19/04:30pm 22.6 19.0 8.2 39 8.0 SE 17 22 9 12 - - 0.0
19/04:20pm 22.9 20.2 9.1 41 7.8 SE 13 19 7 10 - - 0.0
19/04:10pm 23.0 20.4 9.3 41 7.8 SSE 13 17 7 9 - - 0.0
19/04:00pm 22.5 19.4 7.3 37 8.3 S 13 15 7 8 - - 0.0
19/03:50pm 22.8 20.1 7.4 37 8.4 SW 11 15 6 8 - - 0.0
19/03:40pm 22.1 18.8 8.2 41 7.7 SW 15 19 8 10 - - 0.0
19/03:30pm 22.2 19.6 9.3 43 7.3 SSW 13 17 7 9 - - 0.0
19/03:20pm 22.0 19.7 9.0 43 7.3 SSW 11 15 6 8 - - 0.0
19/03:10pm 22.0 19.6 10.2 47 6.8 SSW 13 17 7 9 - - 0.0
19/03:00pm 22.5 19.6 9.7 44 7.3 SSW 15 24 8 13 - - 0.0
19/02:50pm 22.7 18.4 9.3 42 7.6 S 22 24 12 13 - - 0.0
19/02:40pm 22.8 18.8 10.4 45 7.1 S 22 24 12 13 - - 0.0
19/02:30pm 23.3 19.1 9.9 42 7.7 S 22 28 12 15 - - 0.0
19/02:20pm 24.2 19.5 9.4 39 8.4 S 24 30 13 16 - - 0.0
19/02:10pm 25.0 21.4 10.4 39 8.5 S 20 26 11 14 - - 0.0
19/02:00pm 25.0 22.5 8.1 34 9.5 NE 11 20 6 11 - - 0.0
19/01:50pm 25.0 21.8 8.5 35 9.3 NNE 15 20 8 11 - - 0.0
19/01:40pm 25.0 20.2 9.0 36 9.1 NNE 24 30 13 16 - - 0.0
19/01:30pm 25.3 21.6 9.5 36 9.1 NNE 19 26 10 14 - - 0.0
19/01:20pm 26.0 23.1 9.6 35 9.5 ENE 15 24 8 13 - - 0.0
19/01:10pm 25.7 22.4 9.7 36 9.2 NNE 17 24 9 13 - - 0.0
19/01:00pm 26.9 24.1 10.0 34 9.9 NNE 15 20 8 11 - - 0.0
19/12:50pm 26.8 24.4 9.9 34 9.8 N 13 17 7 9 - - 0.0
19/12:40pm 25.5 23.6 10.6 39 8.7 N 11 17 6 9 - - 0.0
19/12:30pm 25.0 22.2 10.0 38 8.7 N 15 19 8 10 - - 0.0
19/12:20pm 24.5 22.8 11.3 43 7.8 NNE 11 15 6 8 - - 0.0
19/12:10pm 24.5 21.7 11.3 43 7.8 NNE 17 19 9 10 - - 0.0
19/12:00pm 24.1 20.7 11.3 44 7.5 NNE 20 22 11 12 - - 0.0
19/11:50am 22.9 19.6 11.6 49 6.6 NE 20 22 11 12 - - 0.0
19/11:40am 23.7 20.6 11.7 47 7.1 NNE 19 24 10 13 - - 0.0
19/11:30am 23.2 20.8 11.3 47 7.0 N 15 19 8 10 - - 0.0
19/11:20am 22.5 19.4 11.5 49 6.5 NNE 19 22 10 12 - - 0.0
19/11:10am 22.0 18.8 11.2 50 6.3 NE 19 22 10 12 - - 0.0
19/11:00am 21.8 18.7 11.6 52 6.0 NE 19 22 10 12 - - 0.0
19/10:50am 22.4 19.2 11.4 49 6.4 NE 19 22 10 12 - - 0.0
19/10:40am 22.0 19.6 11.5 51 6.1 NE 15 20 8 11 - - 0.0
19/10:30am 21.8 20.3 11.8 53 5.9 ENE 11 17 6 9 - - 0.0
19/10:20am 21.5 20.3 11.6 53 5.8 NNE 9 11 5 6 - - 0.0
19/10:10am 20.9 19.7 11.7 55 5.4 NE 9 13 5 7 - - 0.0
19/10:00am 20.5 18.9 11.7 57 5.1 NE 11 17 6 9 - - 0.0
19/09:50am 20.1 18.9 11.7 58 4.9 NE 9 17 5 9 - - 0.0
19/09:40am 19.4 17.8 11.4 60 4.6 NE 11 13 6 7 - - 0.0
19/09:30am 18.6 17.4 11.7 64 4.0 NE 9 13 5 7 - - 0.0
19/09:20am 18.0 17.2 11.6 66 3.7 NE 7 11 4 6 - - 0.0
19/09:10am 18.9 18.8 12.0 64 4.0 ESE 4 6 2 3 - - 0.0
19/09:00am 17.9 18.0 11.6 66 3.6 S 2 4 1 2 - - 0.0
19/08:50am 16.5 16.6 11.5 72 2.9 W 2 2 1 1 - - 0.0
19/08:40am 15.4 15.0 11.0 75 2.5 S 4 7 2 4 - - 0.0
19/08:30am 14.1 13.3 11.0 81 1.7 S 6 7 3 4 - - 0.0
19/08:20am 13.4 12.4 10.9 85 1.4 S 7 7 4 4 - - 0.0
19/08:10am 13.1 12.3 11.0 87 1.2 SSE 6 6 3 3 - - 0.0
19/08:00am 12.7 12.3 11.2 91 0.8 SE 4 6 2 3 - - 0.0
19/07:50am 12.1 12.1 11.2 94 0.5 NE 2 2 1 1 - - 0.0
19/07:40am 11.6 11.5 10.9 95 0.4 WNW 2 4 1 2 - - 0.0
19/07:30am 11.6 11.5 10.8 95 0.4 NNW 2 4 1 2 - - 0.0
19/07:20am 11.4 11.3 10.7 95 0.4 NW 2 2 1 1 - - 0.0
19/07:10am 11.2 11.0 10.5 95 0.4 NW 2 4 1 2 - - 0.0
19/07:00am 11.1 10.9 10.4 95 0.4 NNW 2 4 1 2 - - 0.0
19/06:50am 10.9 10.7 10.3 96 0.3 WSW 2 4 1 2 - - 0.0
19/06:40am 10.9 10.2 10.2 95 0.4 W 4 4 2 2 - - 0.0
19/06:30am 11.0 10.3 10.1 94 0.5 SW 4 4 2 2 - - 0.0
19/06:20am 10.8 10.1 9.9 94 0.5 S 4 4 2 2 - - 0.0
19/06:10am 10.7 10.0 9.9 95 0.4 S 4 6 2 3 - - 0.0
19/06:00am 11.0 10.3 10.0 93 0.5 S 4 6 2 3 - - 0.0
19/05:50am 11.6 11.3 10.2 91 0.8 SSW 2 4 1 2 - - 0.0
19/05:40am 11.4 11.2 10.3 93 0.6 W 2 4 1 2 - - 0.0
19/05:30am 11.4 11.2 10.3 93 0.6 SSW 2 2 1 1 - - 0.0
19/05:20am 11.4 11.1 10.2 92 0.6 SSE 2 2 1 1 - - 0.0
19/05:10am 11.4 11.1 10.1 92 0.7 SSE 2 4 1 2 - - 0.0
19/05:00am 11.4 11.1 10.1 92 0.7 ESE 2 4 1 2 - - 0.0
19/04:50am 11.2 10.5 10.1 93 0.6 SE 4 4 2 2 - - 0.0
19/04:40am 11.0 10.3 10.1 94 0.5 SE 4 6 2 3 - - 0.0
19/04:30am 11.0 10.3 10.1 94 0.5 ENE 4 4 2 2 - - 0.0
19/04:20am 11.3 10.7 10.4 94 0.5 N 4 6 2 3 - - 0.0
19/04:10am 11.7 10.7 10.4 92 0.7 NW 6 6 3 3 - - 0.0
19/04:00am 11.8 10.8 10.3 90 0.8 W 6 7 3 4 - - 0.0
19/03:50am 11.8 11.6 10.3 90 0.8 WNW 2 4 1 2 - - 0.0
19/03:40am 12.0 11.8 10.3 89 0.9 E 2 4 1 2 - - 0.0
19/03:30am 12.2 12.0 10.4 89 1.0 WSW 2 2 1 1 - - 0.0
19/03:20am 11.9 11.3 10.3 90 0.9 SSW 4 6 2 3 - - 0.0
19/03:10am 11.6 10.6 10.2 91 0.8 SE 6 6 3 3 - - 0.0
19/03:00am 11.8 10.8 10.3 90 0.8 SE 6 6 3 3 - - 0.0
19/02:50am 12.2 12.0 10.5 89 0.9 E 2 4 1 2 - - 0.0
19/02:40am 12.4 12.3 10.7 89 0.9 N 2 2 1 1 - - 0.0
19/02:30am 12.4 12.2 10.6 89 1.0 WNW 2 4 1 2 - - 0.0
19/02:20am 12.3 12.1 10.6 89 0.9 NNW 2 4 1 2 - - 0.0
19/02:10am 12.6 12.1 10.6 88 1.1 N 4 6 2 3 - - 0.0
19/02:00am 13.2 12.7 10.6 84 1.4 S 4 7 2 4 - - 0.0
19/01:50am 12.9 11.8 10.5 85 1.3 SSW 7 9 4 5 - - 0.0
19/01:40am 12.8 11.9 10.6 86 1.2 S 6 7 3 4 - - 0.0
19/01:30am 13.0 12.1 10.5 85 1.4 S 6 7 3 4 - - 0.0
19/01:20am 13.0 12.1 10.7 86 1.3 S 6 7 3 4 - - 0.0
19/01:10am 14.0 13.5 10.8 81 1.8 W 4 6 2 3 - - 0.0
19/01:00am 14.1 13.2 10.7 80 1.9 WNW 6 6 3 3 - - 0.0
19/12:50am 14.3 13.8 10.8 79 1.9 W 4 6 2 3 - - 0.0
19/12:40am 14.6 14.1 10.7 77 2.2 SW 4 6 2 3 - - 0.0
19/12:30am 14.6 13.7 10.7 77 2.2 SW 6 7 3 4 - - 0.0
19/12:20am 14.5 13.6 10.7 78 2.1 WSW 6 7 3 4 - - 0.0
19/12:10am 14.6 13.5 10.8 78 2.1 WSW 7 7 4 4 - - 0.0
19/12:00am 14.8 14.0 11.0 78 2.1 WSW 6 7 3 4 - - 0.0
 
Date/Time
EDT
Temp
°C
App
Temp
°C
Dew
Point
°C
Rel
Hum
%
Delta-T
°C
Wind Press
QNH
hPa
Press
MSL
hPa
Rain since
9am
mm
Dir  Spd
km/h
Gust
km/h
Spd
kts
Gust
kts
18/11:50pm 15.0 14.2 11.0 77 2.2 SW 6 6 3 3 - - 0.0
18/11:40pm 15.1 14.3 11.0 76 2.3 S 6 6 3 3 - - 0.0
18/11:30pm 15.2 14.3 10.8 75 2.5 SE 6 6 3 3 - - 0.0
18/11:20pm 15.2 13.8 10.9 75 2.4 ESE 9 9 5 5 - - 0.0
18/11:10pm 15.2 14.2 10.9 75 2.4 E 7 9 4 5 - - 0.0
18/11:00pm 15.2 13.8 10.9 75 2.4 ESE 9 15 5 8 - - 0.0
18/10:50pm 15.3 13.5 10.8 74 2.5 SE 11 15 6 8 - - 0.0
18/10:40pm 15.3 13.2 11.1 76 2.4 SE 13 15 7 8 - - 0.0
18/10:30pm 15.3 13.9 11.0 75 2.4 SE 9 11 5 6 - - 0.0
18/10:20pm 15.3 13.5 11.0 75 2.4 SE 11 13 6 7 - - 0.0
18/10:10pm 15.4 13.6 11.0 75 2.5 SE 11 13 6 7 - - 0.0
18/10:00pm 15.4 14.0 11.0 75 2.5 ESE 9 11 5 6 - - 0.0
18/09:50pm 15.5 14.2 11.1 75 2.5 ESE 9 11 5 6 - - 0.0
18/09:40pm 15.5 13.0 11.1 75 2.5 ESE 15 17 8 9 - - 0.0
18/09:30pm 15.6 13.5 11.3 75 2.4 ESE 13 17 7 9 - - 0.0
18/09:20pm 15.8 14.5 11.3 74 2.5 ESE 9 13 5 7 - - 0.0
18/09:10pm 15.8 14.1 11.3 74 2.5 SE 11 13 6 7 - - 0.0
18/09:00pm 15.9 14.2 11.2 73 2.7 SE 11 15 6 8 - - 0.0
18/08:50pm 16.0 14.3 11.3 73 2.7 ESE 11 17 6 9 - - 0.0
18/08:40pm 16.2 15.0 11.5 73 2.7 SE 9 11 5 6 - - 0.0
18/08:30pm 16.3 13.9 11.5 73 2.7 SE 15 19 8 10 - - 0.0
18/08:20pm 16.4 14.0 11.4 72 2.8 SE 15 17 8 9 - - 0.0
18/08:10pm 16.6 14.6 11.5 72 2.9 SE 13 15 7 8 - - 0.0
18/08:00pm 16.7 13.5 11.4 71 3.0 ESE 19 22 10 12 - - 0.0
18/07:50pm 17.0 13.8 11.4 69 3.2 ESE 19 20 10 11 - - 0.0
18/07:40pm 17.5 14.3 11.4 67 3.5 ESE 19 20 10 11 - - 0.0
18/07:30pm 17.7 14.9 11.3 66 3.7 ESE 17 20 9 11 - - 0.0
18/07:20pm 18.0 15.6 11.3 65 3.8 E 15 20 8 11 - - 0.0
18/07:10pm 18.1 15.6 11.0 63 4.0 E 15 19 8 10 - - 0.0
18/07:00pm 18.1 14.7 11.2 64 3.9 E 20 26 11 14 - - 0.0
18/06:50pm 18.3 14.9 11.2 63 4.1 ESE 20 24 11 13 - - 0.0
18/06:40pm 18.5 14.7 11.1 62 4.2 ESE 22 26 12 14 - - 0.0
18/06:30pm 18.7 14.9 11.2 61 4.3 ESE 22 28 12 15 - - 0.0
18/06:20pm 19.0 15.6 11.1 60 4.5 ESE 20 26 11 14 - - 0.0
18/06:10pm 19.4 16.0 11.2 59 4.7 ESE 20 28 11 15 - - 0.0
18/06:00pm 19.8 16.0 11.2 57 5.0 - 22 26 12 14 - - 0.0
18/05:50pm 20.3 16.9 11.2 56 5.3 E 20 28 11 15 - - 0.0
18/05:40pm 21.0 17.7 10.9 52 5.8 ESE 19 22 10 12 - - 0.0
18/05:30pm 21.4 18.0 10.7 50 6.2 ESE 19 24 10 13 - - 0.0
18/05:20pm 22.0 19.0 10.7 48 6.5 ESE 17 22 9 12 - - 0.0
18/05:10pm 22.6 18.9 10.1 45 7.2 SE 20 26 11 14 - - 0.0
18/05:00pm 22.5 18.9 10.5 46 6.9 SE 20 30 11 16 - - 0.0
18/04:50pm 22.4 18.8 10.4 46 6.9 SE 20 24 11 13 - - 0.0
18/04:40pm 23.0 19.6 10.5 45 7.2 ESE 19 24 10 13 - - 0.0
18/04:30pm 22.1 18.7 10.4 47 6.7 ESE 19 22 10 12 - - 0.0
18/04:20pm 22.2 18.2 10.6 47 6.7 ESE 22 28 12 15 - - 0.0
18/04:10pm 22.1 18.1 10.5 47 6.7 ESE 22 24 12 13 - - 0.0
18/04:00pm 22.3 18.7 10.5 47 6.8 - 20 30 11 16 - - 0.0
18/03:50pm 23.4 19.8 10.4 43 7.5 E 20 28 11 15 - - 0.0
18/03:40pm 23.1 19.4 10.1 43 7.5 E 20 26 11 14 - - 0.0
18/03:30pm 23.0 19.1 9.6 42 7.6 ESE 20 28 11 15 - - 0.0
18/03:20pm 23.4 19.8 10.7 44 7.4 ESE 20 24 11 13 - - 0.0
18/03:10pm 23.0 19.6 10.6 45 7.2 ESE 19 26 10 14 - - 0.0
18/03:00pm 23.0 19.2 11.2 47 6.9 SE 22 30 12 16 - - 0.0
18/02:50pm 22.4 19.0 11.2 49 6.5 SE 20 28 11 15 - - 0.0
18/02:40pm 23.2 19.2 10.3 44 7.4 SE 22 28 12 15 - - 0.0
18/02:30pm 22.8 19.3 10.8 46 7.0 ESE 20 24 11 13 - - 0.0
18/02:20pm 22.6 19.2 10.4 46 7.0 SE 19 24 10 13 - - 0.0
18/02:10pm 22.9 20.0 11.1 47 6.9 ESE 17 22 9 12 - - 0.0
18/02:00pm 22.7 19.8 11.1 48 6.8 SE 17 22 9 12 - - 0.0
18/01:50pm 22.1 20.8 11.2 50 6.3 SE 9 17 5 9 - - 0.0
18/01:40pm 22.0 19.5 10.9 49 6.4 SE 15 20 8 11 - - 0.0
18/01:30pm 22.1 18.9 10.1 46 6.9 SE 17 19 9 10 - - 0.0
18/01:20pm 21.9 20.6 11.2 50 6.2 S 9 13 5 7 - - 0.0
18/01:10pm 21.7 19.5 10.9 50 6.2 SSE 13 17 7 9 - - 0.0
18/01:00pm 21.5 19.7 11.0 51 6.1 SE 11 17 6 9 - - 0.0
18/12:50pm 20.7 19.3 10.9 53 5.6 ESE 9 13 5 7 - - 0.0
18/12:40pm 20.7 18.4 10.4 51 5.9 E 13 17 7 9 - - 0.0
18/12:30pm 20.5 17.9 10.7 53 5.6 E 15 19 8 10 - - 0.0
18/12:20pm 19.9 18.2 11.3 57 5.0 E 11 17 6 9 - - 0.0
18/12:10pm 19.5 17.4 11.2 58 4.8 ESE 13 15 7 8 - - 0.0
18/12:00pm 19.3 18.0 11.2 59 4.7 E 9 11 5 6 - - 0.0
18/11:50am 19.1 17.8 11.4 61 4.4 E 9 15 5 8 - - 0.0
18/11:40am 18.2 16.1 11.3 64 4.0 E 13 17 7 9 - - 0.0
18/11:30am 17.7 16.3 11.0 65 3.8 SE 9 17 5 9 - - 0.0
18/11:20am 16.9 15.6 11.3 69 3.2 SE 9 13 5 7 - - 0.0
18/11:10am 16.7 15.8 11.2 70 3.1 SE 7 11 4 6 - - 0.0
18/11:00am 16.4 15.5 11.2 71 2.9 SSE 7 11 4 6 - - 0.0
18/10:50am 16.0 14.3 11.1 72 2.8 SE 11 13 6 7 - - 0.0
18/10:40am 16.0 15.0 11.0 72 2.8 S 7 11 4 6 - - 0.0
18/10:30am 15.5 14.5 10.9 74 2.6 S 7 11 4 6 - - 0.0
18/10:20am 15.0 14.2 11.2 78 2.1 S 6 7 3 4 - - 0.0
18/10:10am 14.8 13.9 11.2 79 2.0 S 7 9 4 5 - - 0.0
18/10:00am 14.8 14.0 11.1 78 2.1 S 6 9 3 5 - - 0.0
18/09:50am 14.5 13.5 11.0 79 2.0 SE 7 7 4 4 - - 0.0
18/09:40am 14.3 13.3 11.0 80 1.8 SSE 7 9 4 5 - - 0.0
18/09:30am 14.1 13.3 10.9 81 1.8 SE 6 11 3 6 - - 0.0
18/09:20am 13.8 12.4 11.0 83 1.6 SE 9 15 5 8 - - 0.0
18/09:10am 13.9 12.9 11.0 83 1.6 ESE 7 9 4 5 - - 0.0
18/09:00am 13.8 12.4 10.8 82 1.7 SE 9 13 5 7 - - 0.0
18/08:50am 13.7 11.9 10.9 83 1.6 SE 11 13 6 7 - - 0.0
18/08:40am 13.6 11.8 10.8 83 1.6 SE 11 15 6 8 - - 0.0
18/08:30am 13.6 11.8 10.9 84 1.5 SSE 11 13 6 7 - - 0.0
18/08:20am 13.6 11.4 10.8 83 1.6 SE 13 17 7 9 - - 0.0
18/08:10am 13.5 11.3 10.8 84 1.5 SE 13 19 7 10 - - 0.0
18/08:00am 13.5 11.0 10.9 84 1.4 ESE 15 19 8 10 - - 0.0
18/07:50am 13.6 11.4 10.7 82 1.6 ESE 13 19 7 10 - - 0.0
18/07:40am 13.7 11.9 10.7 82 1.7 SE 11 13 6 7 - - 0.0
18/07:30am 13.7 12.2 10.7 82 1.7 SE 9 15 5 8 - - 0.0
18/07:20am 13.6 12.2 11.0 84 1.4 SSE 9 11 5 6 - - 0.0
18/07:10am 13.5 12.6 11.2 86 1.3 SSE 7 9 4 5 - - 0.0
18/07:00am 13.5 12.4 10.8 84 1.5 SE 7 9 4 5 - - 0.0
18/06:50am 13.4 12.0 11.0 85 1.3 S 9 11 5 6 - - 0.0
18/06:40am 13.4 11.7 11.1 86 1.3 S 11 13 6 7 - - 0.0
18/06:30am 13.3 11.6 11.2 87 1.2 SSE 11 13 6 7 - - 0.0
18/06:20am 13.2 11.1 11.0 86 1.2 SE 13 20 7 11 - - 0.0
18/06:10am 13.3 10.4 11.1 86 1.2 SSE 17 19 9 10 - - 0.0
18/06:00am 13.3 10.8 11.0 86 1.3 SSE 15 19 8 10 - - 0.0
18/05:50am 13.3 11.2 11.1 86 1.2 SE 13 19 7 10 - - 0.0
18/05:40am 13.3 10.8 11.1 86 1.2 SSE 15 20 8 11 - - 0.0
18/05:30am 13.4 11.7 11.2 86 1.2 SE 11 13 6 7 - - 0.0
18/05:20am 13.3 11.6 11.1 86 1.2 SSE 11 13 6 7 - - 0.0
18/05:10am 13.2 11.5 11.3 88 1.1 SSE 11 13 6 7 - - 0.0
18/05:00am 13.3 11.7 11.4 88 1.1 SSE 11 17 6 9 - - 0.0
18/04:50am 13.3 11.3 11.4 88 1.1 SSE 13 15 7 8 - - 0.0
18/04:40am 13.3 11.7 11.4 88 1.1 S 11 11 6 6 - - 0.0
18/04:30am 13.3 11.2 11.3 88 1.1 S 13 15 7 8 - - 0.0

Latest Capital City Observations: Canberra | Sydney | Melbourne | Brisbane | Adelaide | Perth | Hobart | Darwin

Other formats

Comma delimited format used in spreadsheet applications
http://www.bom.gov.au/fwo/IDN60903/IDN60903.99765.axf

JavaScript Object Notation format (JSON) in row-major order
http://www.bom.gov.au/fwo/IDN60903/IDN60903.99765.json

Data quality

Most of these data are generated automatically and are frequently updated. Quality checks on data are not normally performed. It is possible for incorrect values to appear. Refer to information at About Latest Weather Observations and please check the disclaimer before using these data.